sensor_id;sensor_type;location;lat;lon;timestamp;temperature;humidity
34135;DHT22;20410;55.578;12.968;2023-07-20T00:00:29;16.00;1.00
34135;DHT22;20410;55.578;12.968;2023-07-20T00:03:10;16.00;1.00
34135;DHT22;20410;55.578;12.968;2023-07-20T00:05:38;16.00;1.00
34135;DHT22;20410;55.578;12.968;2023-07-20T00:08:03;15.90;1.00
34135;DHT22;20410;55.578;12.968;2023-07-20T00:10:29;15.90;1.00
34135;DHT22;20410;55.578;12.968;2023-07-20T00:12:54;15.90;1.00
34135;DHT22;20410;55.578;12.968;2023-07-20T00:15:20;15.80;1.00
34135;DHT22;20410;55.578;12.968;2023-07-20T00:17:46;15.80;1.00
34135;DHT22;20410;55.578;12.968;2023-07-20T00:20:11;15.80;1.00
34135;DHT22;20410;55.578;12.968;2023-07-20T00:22:37;15.70;1.00
34135;DHT22;20410;55.578;12.968;2023-07-20T00:25:03;15.70;1.00
34135;DHT22;20410;55.578;12.968;2023-07-20T00:27:29;15.70;1.00
34135;DHT22;20410;55.578;12.968;2023-07-20T00:29:54;15.70;1.00
34135;DHT22;20410;55.578;12.968;2023-07-20T00:32:20;15.70;1.00
34135;DHT22;20410;55.578;12.968;2023-07-20T00:34:45;15.70;1.00
34135;DHT22;20410;55.578;12.968;2023-07-20T00:37:11;15.70;1.00
34135;DHT22;20410;55.578;12.968;2023-07-20T00:39:36;15.70;1.00
34135;DHT22;20410;55.578;12.968;2023-07-20T00:42:02;15.70;1.00
34135;DHT22;20410;55.578;12.968;2023-07-20T00:44:28;15.70;1.00
34135;DHT22;20410;55.578;12.968;2023-07-20T00:46:53;15.70;1.00
34135;DHT22;20410;55.578;12.968;2023-07-20T00:49:19;15.70;1.00
34135;DHT22;20410;55.578;12.968;2023-07-20T00:51:48;15.70;1.00
34135;DHT22;20410;55.578;12.968;2023-07-20T00:54:14;15.70;1.00
34135;DHT22;20410;55.578;12.968;2023-07-20T00:56:40;15.70;1.00
34135;DHT22;20410;55.578;12.968;2023-07-20T00:59:06;15.70;1.00
34135;DHT22;20410;55.578;12.968;2023-07-20T01:01:32;15.70;1.00
34135;DHT22;20410;55.578;12.968;2023-07-20T01:03:58;15.70;1.00
34135;DHT22;20410;55.578;12.968;2023-07-20T01:12:51;15.60;1.00
34135;DHT22;20410;55.578;12.968;2023-07-20T01:15:14;15.60;1.00
34135;DHT22;20410;55.578;12.968;2023-07-20T01:17:40;15.50;1.00
34135;DHT22;20410;55.578;12.968;2023-07-20T01:20:08;15.50;1.00
34135;DHT22;20410;55.578;12.968;2023-07-20T01:33:20;15.40;1.00
34135;DHT22;20410;55.578;12.968;2023-07-20T01:35:58;15.30;1.00
34135;DHT22;20410;55.578;12.968;2023-07-20T01:38:25;15.30;1.00
34135;DHT22;20410;55.578;12.968;2023-07-20T01:40:51;15.30;1.00
34135;DHT22;20410;55.578;12.968;2023-07-20T01:43:17;15.30;1.00
34135;DHT22;20410;55.578;12.968;2023-07-20T01:45:43;15.30;1.00
34135;DHT22;20410;55.578;12.968;2023-07-20T01:48:09;15.30;1.00
34135;DHT22;20410;55.578;12.968;2023-07-20T01:50:35;15.30;1.00
34135;DHT22;20410;55.578;12.968;2023-07-20T01:53:01;15.30;1.00
34135;DHT22;20410;55.578;12.968;2023-07-20T01:55:26;15.30;1.00
34135;DHT22;20410;55.578;12.968;2023-07-20T01:57:53;15.20;1.00
34135;DHT22;20410;55.578;12.968;2023-07-20T02:00:18;15.20;1.00
34135;DHT22;20410;55.578;12.968;2023-07-20T02:02:46;15.30;1.00
34135;DHT22;20410;55.578;12.968;2023-07-20T02:05:12;15.30;1.00
34135;DHT22;20410;55.578;12.968;2023-07-20T02:07:38;15.20;1.00
34135;DHT22;20410;55.578;12.968;2023-07-20T02:10:04;15.20;1.00
34135;DHT22;20410;55.578;12.968;2023-07-20T02:12:29;15.20;1.00
34135;DHT22;20410;55.578;12.968;2023-07-20T02:14:55;15.20;1.00
34135;DHT22;20410;55.578;12.968;2023-07-20T02:17:21;15.20;1.00
34135;DHT22;20410;55.578;12.968;2023-07-20T02:19:46;15.20;1.00
34135;DHT22;20410;55.578;12.968;2023-07-20T02:22:15;15.20;1.00
34135;DHT22;20410;55.578;12.968;2023-07-20T02:24:42;15.30;1.00
34135;DHT22;20410;55.578;12.968;2023-07-20T02:27:07;15.20;1.00
34135;DHT22;20410;55.578;12.968;2023-07-20T02:29:33;15.20;1.00
34135;DHT22;20410;55.578;12.968;2023-07-20T02:31:59;15.20;1.00
34135;DHT22;20410;55.578;12.968;2023-07-20T02:34:25;15.20;1.00
34135;DHT22;20410;55.578;12.968;2023-07-20T02:36:50;15.20;1.00
34135;DHT22;20410;55.578;12.968;2023-07-20T02:39:16;15.20;1.00
34135;DHT22;20410;55.578;12.968;2023-07-20T02:41:42;15.10;1.00
34135;DHT22;20410;55.578;12.968;2023-07-20T02:44:07;15.10;1.00
34135;DHT22;20410;55.578;12.968;2023-07-20T02:46:33;15.00;1.00
34135;DHT22;20410;55.578;12.968;2023-07-20T02:49:00;15.00;1.00
34135;DHT22;20410;55.578;12.968;2023-07-20T02:51:26;15.00;1.00
34135;DHT22;20410;55.578;12.968;2023-07-20T02:53:52;15.00;1.00
34135;DHT22;20410;55.578;12.968;2023-07-20T02:56:17;15.00;1.00
34135;DHT22;20410;55.578;12.968;2023-07-20T02:58:43;15.00;1.00
34135;DHT22;20410;55.578;12.968;2023-07-20T03:01:09;15.00;1.00
34135;DHT22;20410;55.578;12.968;2023-07-20T03:03:36;14.90;1.00
34135;DHT22;20410;55.578;12.968;2023-07-20T03:06:05;14.90;1.00
34135;DHT22;20410;55.578;12.968;2023-07-20T03:08:30;14.90;1.00
34135;DHT22;20410;55.578;12.968;2023-07-20T03:10:56;14.90;1.00
34135;DHT22;20410;55.578;12.968;2023-07-20T03:13:21;15.00;1.00
34135;DHT22;20410;55.578;12.968;2023-07-20T03:15:49;14.90;1.00
34135;DHT22;20410;55.578;12.968;2023-07-20T03:18:15;15.00;1.00
34135;DHT22;20410;55.578;12.968;2023-07-20T03:20:40;15.00;1.00
34135;DHT22;20410;55.578;12.968;2023-07-20T03:23:06;14.90;1.00
34135;DHT22;20410;55.578;12.968;2023-07-20T03:25:31;14.90;1.00
34135;DHT22;20410;55.578;12.968;2023-07-20T03:27:57;14.90;1.00
34135;DHT22;20410;55.578;12.968;2023-07-20T03:30:22;15.00;1.00
34135;DHT22;20410;55.578;12.968;2023-07-20T03:32:48;15.00;1.00
34135;DHT22;20410;55.578;12.968;2023-07-20T03:35:14;15.00;1.00
34135;DHT22;20410;55.578;12.968;2023-07-20T03:37:41;15.00;1.00
34135;DHT22;20410;55.578;12.968;2023-07-20T03:40:07;15.00;1.00
34135;DHT22;20410;55.578;12.968;2023-07-20T03:42:33;15.10;1.00
34135;DHT22;20410;55.578;12.968;2023-07-20T03:44:59;15.10;1.00
34135;DHT22;20410;55.578;12.968;2023-07-20T03:47:24;15.20;1.00
34135;DHT22;20410;55.578;12.968;2023-07-20T03:49:50;15.30;1.00
34135;DHT22;20410;55.578;12.968;2023-07-20T03:52:15;15.30;1.00
34135;DHT22;20410;55.578;12.968;2023-07-20T03:54:41;15.40;1.00
34135;DHT22;20410;55.578;12.968;2023-07-20T03:57:07;15.40;1.00
34135;DHT22;20410;55.578;12.968;2023-07-20T03:59:32;15.50;1.00
34135;DHT22;20410;55.578;12.968;2023-07-20T04:01:59;15.50;1.00
34135;DHT22;20410;55.578;12.968;2023-07-20T04:04:24;15.60;1.00
34135;DHT22;20410;55.578;12.968;2023-07-20T04:06:50;15.60;1.00
34135;DHT22;20410;55.578;12.968;2023-07-20T04:09:15;15.60;1.00
34135;DHT22;20410;55.578;12.968;2023-07-20T04:11:41;15.70;1.00
34135;DHT22;20410;55.578;12.968;2023-07-20T04:14:07;15.70;1.00
34135;DHT22;20410;55.578;12.968;2023-07-20T04:16:32;15.80;1.00
34135;DHT22;20410;55.578;12.968;2023-07-20T04:18:58;15.80;1.00
34135;DHT22;20410;55.578;12.968;2023-07-20T04:21:26;15.90;1.00
34135;DHT22;20410;55.578;12.968;2023-07-20T04:23:52;16.00;1.00
34135;DHT22;20410;55.578;12.968;2023-07-20T04:26:17;15.90;1.00
34135;DHT22;20410;55.578;12.968;2023-07-20T04:28:43;15.90;1.00
34135;DHT22;20410;55.578;12.968;2023-07-20T04:31:12;16.00;1.00
34135;DHT22;20410;55.578;12.968;2023-07-20T04:33:38;16.00;1.00
34135;DHT22;20410;55.578;12.968;2023-07-20T04:36:04;16.00;1.00
34135;DHT22;20410;55.578;12.968;2023-07-20T04:38:30;16.10;1.00
34135;DHT22;20410;55.578;12.968;2023-07-20T04:40:55;16.10;1.00
34135;DHT22;20410;55.578;12.968;2023-07-20T04:43:21;16.10;1.00
34135;DHT22;20410;55.578;12.968;2023-07-20T04:45:47;16.20;1.00
34135;DHT22;20410;55.578;12.968;2023-07-20T04:48:14;16.20;1.00
34135;DHT22;20410;55.578;12.968;2023-07-20T04:50:41;16.20;1.00
34135;DHT22;20410;55.578;12.968;2023-07-20T04:53:08;16.30;1.00
34135;DHT22;20410;55.578;12.968;2023-07-20T04:55:36;16.40;1.00
34135;DHT22;20410;55.578;12.968;2023-07-20T04:58:03;16.40;1.00
34135;DHT22;20410;55.578;12.968;2023-07-20T05:00:29;16.40;1.00
34135;DHT22;20410;55.578;12.968;2023-07-20T05:02:55;16.40;1.00
34135;DHT22;20410;55.578;12.968;2023-07-20T05:05:21;16.50;1.00
34135;DHT22;20410;55.578;12.968;2023-07-20T05:07:47;16.50;1.00
34135;DHT22;20410;55.578;12.968;2023-07-20T05:10:12;16.60;1.00
34135;DHT22;20410;55.578;12.968;2023-07-20T05:12:38;16.60;1.00
34135;DHT22;20410;55.578;12.968;2023-07-20T05:15:04;16.70;1.00
34135;DHT22;20410;55.578;12.968;2023-07-20T05:17:29;16.70;1.00
34135;DHT22;20410;55.578;12.968;2023-07-20T05:19:55;16.70;1.00
34135;DHT22;20410;55.578;12.968;2023-07-20T05:22:21;16.70;1.00
34135;DHT22;20410;55.578;12.968;2023-07-20T05:24:46;16.70;1.00
34135;DHT22;20410;55.578;12.968;2023-07-20T05:27:12;16.80;1.00
34135;DHT22;20410;55.578;12.968;2023-07-20T05:29:37;16.90;1.00
34135;DHT22;20410;55.578;12.968;2023-07-20T05:32:03;16.90;1.00
34135;DHT22;20410;55.578;12.968;2023-07-20T05:34:29;17.00;1.00
34135;DHT22;20410;55.578;12.968;2023-07-20T05:36:55;17.00;1.00
34135;DHT22;20410;55.578;12.968;2023-07-20T05:39:20;17.10;1.00
34135;DHT22;20410;55.578;12.968;2023-07-20T05:41:46;17.10;1.00
34135;DHT22;20410;55.578;12.968;2023-07-20T05:44:12;17.10;1.00
34135;DHT22;20410;55.578;12.968;2023-07-20T05:46:38;17.20;1.00
34135;DHT22;20410;55.578;12.968;2023-07-20T05:49:03;17.20;1.00
34135;DHT22;20410;55.578;12.968;2023-07-20T05:51:29;17.30;1.00
34135;DHT22;20410;55.578;12.968;2023-07-20T05:53:54;17.30;1.00
34135;DHT22;20410;55.578;12.968;2023-07-20T05:56:20;17.40;1.00
34135;DHT22;20410;55.578;12.968;2023-07-20T05:58:45;17.40;1.00
34135;DHT22;20410;55.578;12.968;2023-07-20T06:01:11;17.30;1.00
34135;DHT22;20410;55.578;12.968;2023-07-20T06:03:37;17.20;1.00
34135;DHT22;20410;55.578;12.968;2023-07-20T06:06:03;17.20;1.00
34135;DHT22;20410;55.578;12.968;2023-07-20T06:08:32;17.20;1.00
34135;DHT22;20410;55.578;12.968;2023-07-20T06:10:57;17.10;1.00
34135;DHT22;20410;55.578;12.968;2023-07-20T06:13:23;17.10;1.00
34135;DHT22;20410;55.578;12.968;2023-07-20T06:15:49;17.10;1.00
34135;DHT22;20410;55.578;12.968;2023-07-20T06:18:15;17.20;1.00
34135;DHT22;20410;55.578;12.968;2023-07-20T06:20:40;17.30;1.00
34135;DHT22;20410;55.578;12.968;2023-07-20T06:23:06;17.30;1.00
34135;DHT22;20410;55.578;12.968;2023-07-20T06:25:32;17.40;1.00
34135;DHT22;20410;55.578;12.968;2023-07-20T06:27:57;17.50;1.00
34135;DHT22;20410;55.578;12.968;2023-07-20T06:30:24;17.60;1.00
34135;DHT22;20410;55.578;12.968;2023-07-20T06:32:49;17.70;1.00
34135;DHT22;20410;55.578;12.968;2023-07-20T06:35:15;17.80;1.00
34135;DHT22;20410;55.578;12.968;2023-07-20T06:37:41;17.80;1.00
34135;DHT22;20410;55.578;12.968;2023-07-20T06:40:07;18.00;1.00
34135;DHT22;20410;55.578;12.968;2023-07-20T06:42:34;18.00;1.00
34135;DHT22;20410;55.578;12.968;2023-07-20T06:45:00;18.10;1.00
34135;DHT22;20410;55.578;12.968;2023-07-20T06:47:26;18.00;1.00
34135;DHT22;20410;55.578;12.968;2023-07-20T06:49:51;17.90;1.00
34135;DHT22;20410;55.578;12.968;2023-07-20T06:52:17;17.90;1.00
34135;DHT22;20410;55.578;12.968;2023-07-20T06:54:43;18.00;1.00
34135;DHT22;20410;55.578;12.968;2023-07-20T06:57:08;18.10;1.00
34135;DHT22;20410;55.578;12.968;2023-07-20T06:59:34;18.10;1.00
34135;DHT22;20410;55.578;12.968;2023-07-20T07:01:59;18.20;1.00
34135;DHT22;20410;55.578;12.968;2023-07-20T07:04:25;18.40;1.00
34135;DHT22;20410;55.578;12.968;2023-07-20T07:06:51;18.50;1.00
34135;DHT22;20410;55.578;12.968;2023-07-20T07:09:16;18.50;1.00
34135;DHT22;20410;55.578;12.968;2023-07-20T07:11:42;18.60;1.00
34135;DHT22;20410;55.578;12.968;2023-07-20T07:14:07;18.60;1.00
34135;DHT22;20410;55.578;12.968;2023-07-20T07:16:33;18.60;1.00
34135;DHT22;20410;55.578;12.968;2023-07-20T07:18:59;18.70;1.00
34135;DHT22;20410;55.578;12.968;2023-07-20T07:21:25;18.80;1.00
34135;DHT22;20410;55.578;12.968;2023-07-20T07:23:51;18.80;1.00
34135;DHT22;20410;55.578;12.968;2023-07-20T07:26:18;18.90;1.00
34135;DHT22;20410;55.578;12.968;2023-07-20T07:28:44;19.00;1.00
34135;DHT22;20410;55.578;12.968;2023-07-20T07:31:10;19.10;1.00
34135;DHT22;20410;55.578;12.968;2023-07-20T07:33:35;19.30;1.00
34135;DHT22;20410;55.578;12.968;2023-07-20T07:36:01;19.30;1.00
34135;DHT22;20410;55.578;12.968;2023-07-20T07:38:27;19.50;1.00
34135;DHT22;20410;55.578;12.968;2023-07-20T07:40:52;19.50;1.00
34135;DHT22;20410;55.578;12.968;2023-07-20T07:43:18;19.50;1.00
34135;DHT22;20410;55.578;12.968;2023-07-20T07:45:43;19.50;1.00
34135;DHT22;20410;55.578;12.968;2023-07-20T07:48:09;19.70;1.00
34135;DHT22;20410;55.578;12.968;2023-07-20T07:50:36;19.80;1.00
34135;DHT22;20410;55.578;12.968;2023-07-20T07:53:02;20.10;1.00
34135;DHT22;20410;55.578;12.968;2023-07-20T07:55:28;20.30;1.00
34135;DHT22;20410;55.578;12.968;2023-07-20T07:57:54;20.20;1.00
34135;DHT22;20410;55.578;12.968;2023-07-20T08:00:20;20.10;1.00
34135;DHT22;20410;55.578;12.968;2023-07-20T08:02:46;19.70;1.00
34135;DHT22;20410;55.578;12.968;2023-07-20T08:05:13;19.00;1.00
34135;DHT22;20410;55.578;12.968;2023-07-20T08:07:39;18.20;1.00
34135;DHT22;20410;55.578;12.968;2023-07-20T08:10:05;17.50;1.00
34135;DHT22;20410;55.578;12.968;2023-07-20T08:12:31;17.10;1.00
34135;DHT22;20410;55.578;12.968;2023-07-20T08:14:57;17.00;1.00
34135;DHT22;20410;55.578;12.968;2023-07-20T08:17:23;16.90;1.00
34135;DHT22;20410;55.578;12.968;2023-07-20T08:19:48;17.00;1.00
34135;DHT22;20410;55.578;12.968;2023-07-20T08:22:14;16.90;1.00
34135;DHT22;20410;55.578;12.968;2023-07-20T08:24:40;16.90;1.00
34135;DHT22;20410;55.578;12.968;2023-07-20T08:27:06;16.90;1.00
34135;DHT22;20410;55.578;12.968;2023-07-20T08:29:32;16.90;1.00
34135;DHT22;20410;55.578;12.968;2023-07-20T08:31:57;17.00;3.70
34135;DHT22;20410;55.578;12.968;2023-07-20T08:34:23;17.20;9.30
34135;DHT22;20410;55.578;12.968;2023-07-20T08:36:49;17.40;1.00
34135;DHT22;20410;55.578;12.968;2023-07-20T08:39:14;17.60;1.00
34135;DHT22;20410;55.578;12.968;2023-07-20T08:41:42;17.80;1.00
34135;DHT22;20410;55.578;12.968;2023-07-20T08:44:09;18.10;1.00
34135;DHT22;20410;55.578;12.968;2023-07-20T08:46:38;18.20;1.00
34135;DHT22;20410;55.578;12.968;2023-07-20T08:49:05;18.20;1.00
34135;DHT22;20410;55.578;12.968;2023-07-20T08:51:32;18.40;1.00
34135;DHT22;20410;55.578;12.968;2023-07-20T08:53:59;18.50;1.00
34135;DHT22;20410;55.578;12.968;2023-07-20T08:56:26;18.70;1.00
34135;DHT22;20410;55.578;12.968;2023-07-20T08:58:55;18.80;1.00
34135;DHT22;20410;55.578;12.968;2023-07-20T09:01:22;19.10;1.00
34135;DHT22;20410;55.578;12.968;2023-07-20T09:03:47;19.30;1.00
34135;DHT22;20410;55.578;12.968;2023-07-20T09:06:14;19.40;1.00
34135;DHT22;20410;55.578;12.968;2023-07-20T09:08:42;19.60;1.00
34135;DHT22;20410;55.578;12.968;2023-07-20T09:11:11;19.70;1.00
34135;DHT22;20410;55.578;12.968;2023-07-20T09:13:38;19.60;1.00
34135;DHT22;20410;55.578;12.968;2023-07-20T09:16:03;19.70;1.00
34135;DHT22;20410;55.578;12.968;2023-07-20T09:18:31;19.80;1.00
34135;DHT22;20410;55.578;12.968;2023-07-20T09:21:04;20.00;1.00
34135;DHT22;20410;55.578;12.968;2023-07-20T09:23:38;20.00;1.00
34135;DHT22;20410;55.578;12.968;2023-07-20T09:26:10;20.10;1.00
34135;DHT22;20410;55.578;12.968;2023-07-20T09:28:52;20.10;1.00
34135;DHT22;20410;55.578;12.968;2023-07-20T09:31:20;20.30;1.00
34135;DHT22;20410;55.578;12.968;2023-07-20T09:33:47;20.10;1.00
34135;DHT22;20410;55.578;12.968;2023-07-20T09:36:13;20.00;1.00
34135;DHT22;20410;55.578;12.968;2023-07-20T09:38:42;19.90;1.00
34135;DHT22;20410;55.578;12.968;2023-07-20T09:41:13;19.80;1.00
34135;DHT22;20410;55.578;12.968;2023-07-20T09:43:40;19.80;1.00
34135;DHT22;20410;55.578;12.968;2023-07-20T09:46:06;19.80;1.00
34135;DHT22;20410;55.578;12.968;2023-07-20T09:48:31;20.00;1.00
34135;DHT22;20410;55.578;12.968;2023-07-20T09:50:57;20.20;1.00
34135;DHT22;20410;55.578;12.968;2023-07-20T09:53:25;20.40;1.00
34135;DHT22;20410;55.578;12.968;2023-07-20T09:55:52;20.50;99.90
34135;DHT22;20410;55.578;12.968;2023-07-20T09:58:18;20.40;99.90
34135;DHT22;20410;55.578;12.968;2023-07-20T10:00:45;20.30;1.00
34135;DHT22;20410;55.578;12.968;2023-07-20T10:03:16;20.40;1.00
34135;DHT22;20410;55.578;12.968;2023-07-20T10:05:54;20.20;1.00
34135;DHT22;20410;55.578;12.968;2023-07-20T10:08:24;20.10;1.00
34135;DHT22;20410;55.578;12.968;2023-07-20T10:10:50;19.90;1.00
34135;DHT22;20410;55.578;12.968;2023-07-20T10:13:27;20.00;1.00
34135;DHT22;20410;55.578;12.968;2023-07-20T10:16:14;20.30;1.00
34135;DHT22;20410;55.578;12.968;2023-07-20T10:19:02;20.60;1.00
34135;DHT22;20410;55.578;12.968;2023-07-20T10:21:29;20.80;99.90
34135;DHT22;20410;55.578;12.968;2023-07-20T10:23:59;20.90;99.90
34135;DHT22;20410;55.578;12.968;2023-07-20T10:26:26;21.20;99.90
34135;DHT22;20410;55.578;12.968;2023-07-20T10:28:52;21.30;99.90
34135;DHT22;20410;55.578;12.968;2023-07-20T10:31:18;21.50;99.90
34135;DHT22;20410;55.578;12.968;2023-07-20T10:33:45;21.60;99.90
34135;DHT22;20410;55.578;12.968;2023-07-20T10:36:11;21.30;99.90
34135;DHT22;20410;55.578;12.968;2023-07-20T10:41:31;20.90;99.90
34135;DHT22;20410;55.578;12.968;2023-07-20T10:44:01;20.60;1.00
34135;DHT22;20410;55.578;12.968;2023-07-20T10:49:06;20.00;1.00
34135;DHT22;20410;55.578;12.968;2023-07-20T10:51:58;19.90;1.00
34135;DHT22;20410;55.578;12.968;2023-07-20T10:56:50;19.80;1.00
34135;DHT22;20410;55.578;12.968;2023-07-20T11:01:55;20.00;1.00
34135;DHT22;20410;55.578;12.968;2023-07-20T11:04:42;19.90;1.00
34135;DHT22;20410;55.578;12.968;2023-07-20T11:07:08;19.80;1.00
34135;DHT22;20410;55.578;12.968;2023-07-20T11:09:35;20.00;1.00
34135;DHT22;20410;55.578;12.968;2023-07-20T11:12:11;20.40;99.90
34135;DHT22;20410;55.578;12.968;2023-07-20T11:14:57;20.60;99.90
34135;DHT22;20410;55.578;12.968;2023-07-20T11:17:30;20.70;99.90
34135;DHT22;20410;55.578;12.968;2023-07-20T11:19:59;20.80;99.90
34135;DHT22;20410;55.578;12.968;2023-07-20T11:22:31;20.90;99.90
34135;DHT22;20410;55.578;12.968;2023-07-20T11:24:57;20.60;99.90
34135;DHT22;20410;55.578;12.968;2023-07-20T11:27:23;20.40;99.90
34135;DHT22;20410;55.578;12.968;2023-07-20T11:29:49;20.30;99.90
34135;DHT22;20410;55.578;12.968;2023-07-20T11:32:25;20.30;99.90
34135;DHT22;20410;55.578;12.968;2023-07-20T11:34:50;20.40;99.90
34135;DHT22;20410;55.578;12.968;2023-07-20T11:37:17;20.60;99.90
34135;DHT22;20410;55.578;12.968;2023-07-20T11:39:42;20.50;99.90
34135;DHT22;20410;55.578;12.968;2023-07-20T11:42:08;20.50;99.90
34135;DHT22;20410;55.578;12.968;2023-07-20T11:44:34;20.50;99.90
34135;DHT22;20410;55.578;12.968;2023-07-20T11:47:12;20.70;99.90
34135;DHT22;20410;55.578;12.968;2023-07-20T11:49:41;21.10;99.90
34135;DHT22;20410;55.578;12.968;2023-07-20T11:52:09;21.40;99.90
34135;DHT22;20410;55.578;12.968;2023-07-20T11:54:36;21.70;99.90
34135;DHT22;20410;55.578;12.968;2023-07-20T11:57:03;22.00;99.90
34135;DHT22;20410;55.578;12.968;2023-07-20T11:59:30;22.30;99.90
34135;DHT22;20410;55.578;12.968;2023-07-20T12:01:57;22.30;99.90
34135;DHT22;20410;55.578;12.968;2023-07-20T12:04:23;22.30;99.90
34135;DHT22;20410;55.578;12.968;2023-07-20T12:06:49;22.40;94.00
34135;DHT22;20410;55.578;12.968;2023-07-20T12:09:16;22.20;1.00
34135;DHT22;20410;55.578;12.968;2023-07-20T12:11:43;22.00;90.30
34135;DHT22;20410;55.578;12.968;2023-07-20T12:14:10;21.90;99.90
34135;DHT22;20410;55.578;12.968;2023-07-20T12:16:37;21.70;99.90
34135;DHT22;20410;55.578;12.968;2023-07-20T12:19:10;21.50;99.90
34135;DHT22;20410;55.578;12.968;2023-07-20T12:21:37;21.40;99.90
34135;DHT22;20410;55.578;12.968;2023-07-20T12:24:04;21.50;99.90
34135;DHT22;20410;55.578;12.968;2023-07-20T12:26:30;21.60;99.90
34135;DHT22;20410;55.578;12.968;2023-07-20T12:28:56;21.60;99.90
34135;DHT22;20410;55.578;12.968;2023-07-20T12:31:23;21.80;99.90
34135;DHT22;20410;55.578;12.968;2023-07-20T12:33:50;21.80;99.90
34135;DHT22;20410;55.578;12.968;2023-07-20T12:36:17;21.80;99.90
34135;DHT22;20410;55.578;12.968;2023-07-20T12:38:43;21.70;99.90
34135;DHT22;20410;55.578;12.968;2023-07-20T12:41:11;21.60;99.90
34135;DHT22;20410;55.578;12.968;2023-07-20T12:43:40;21.60;99.90
34135;DHT22;20410;55.578;12.968;2023-07-20T12:46:06;21.40;99.90
34135;DHT22;20410;55.578;12.968;2023-07-20T12:48:32;21.40;99.90
34135;DHT22;20410;55.578;12.968;2023-07-20T12:50:58;21.30;99.90
34135;DHT22;20410;55.578;12.968;2023-07-20T12:53:24;21.30;99.90
34135;DHT22;20410;55.578;12.968;2023-07-20T12:55:49;21.40;99.90
34135;DHT22;20410;55.578;12.968;2023-07-20T12:58:15;21.40;99.90
34135;DHT22;20410;55.578;12.968;2023-07-20T13:00:41;21.40;99.90
34135;DHT22;20410;55.578;12.968;2023-07-20T13:03:07;21.30;99.90
34135;DHT22;20410;55.578;12.968;2023-07-20T13:05:34;21.20;99.90
34135;DHT22;20410;55.578;12.968;2023-07-20T13:08:01;21.20;99.90
34135;DHT22;20410;55.578;12.968;2023-07-20T13:10:27;21.10;99.90
34135;DHT22;20410;55.578;12.968;2023-07-20T13:12:53;21.00;99.90
34135;DHT22;20410;55.578;12.968;2023-07-20T13:15:18;21.00;99.90
34135;DHT22;20410;55.578;12.968;2023-07-20T13:17:44;21.00;99.90
34135;DHT22;20410;55.578;12.968;2023-07-20T13:20:11;20.90;99.90
34135;DHT22;20410;55.578;12.968;2023-07-20T13:22:37;20.90;99.90
34135;DHT22;20410;55.578;12.968;2023-07-20T13:25:03;21.00;99.90
34135;DHT22;20410;55.578;12.968;2023-07-20T13:27:29;21.10;99.90
34135;DHT22;20410;55.578;12.968;2023-07-20T13:29:58;21.00;99.90
34135;DHT22;20410;55.578;12.968;2023-07-20T13:32:23;21.10;99.90
34135;DHT22;20410;55.578;12.968;2023-07-20T13:34:49;21.10;99.90
34135;DHT22;20410;55.578;12.968;2023-07-20T13:37:15;21.00;99.90
34135;DHT22;20410;55.578;12.968;2023-07-20T13:39:41;21.20;99.90
34135;DHT22;20410;55.578;12.968;2023-07-20T13:42:07;21.50;99.90
34135;DHT22;20410;55.578;12.968;2023-07-20T13:44:34;21.60;99.90
34135;DHT22;20410;55.578;12.968;2023-07-20T13:47:03;21.70;99.90
34135;DHT22;20410;55.578;12.968;2023-07-20T13:49:31;21.70;1.00
34135;DHT22;20410;55.578;12.968;2023-07-20T13:51:57;21.60;1.00
34135;DHT22;20410;55.578;12.968;2023-07-20T13:54:23;21.20;1.00
34135;DHT22;20410;55.578;12.968;2023-07-20T13:56:49;21.00;1.00
34135;DHT22;20410;55.578;12.968;2023-07-20T13:59:15;20.70;1.00
34135;DHT22;20410;55.578;12.968;2023-07-20T14:01:41;20.70;1.00
34135;DHT22;20410;55.578;12.968;2023-07-20T14:04:07;20.50;1.00
34135;DHT22;20410;55.578;12.968;2023-07-20T14:06:34;20.00;1.00
34135;DHT22;20410;55.578;12.968;2023-07-20T14:09:01;19.60;1.00
34135;DHT22;20410;55.578;12.968;2023-07-20T14:11:27;19.40;1.00
34135;DHT22;20410;55.578;12.968;2023-07-20T14:13:53;19.20;1.00
34135;DHT22;20410;55.578;12.968;2023-07-20T14:16:20;19.10;1.00
34135;DHT22;20410;55.578;12.968;2023-07-20T14:18:45;19.10;1.00
34135;DHT22;20410;55.578;12.968;2023-07-20T14:21:15;19.00;1.00
34135;DHT22;20410;55.578;12.968;2023-07-20T14:23:40;19.00;1.00
34135;DHT22;20410;55.578;12.968;2023-07-20T14:26:06;18.80;1.00
34135;DHT22;20410;55.578;12.968;2023-07-20T14:28:32;18.80;1.00
34135;DHT22;20410;55.578;12.968;2023-07-20T14:30:58;18.80;1.00
34135;DHT22;20410;55.578;12.968;2023-07-20T14:33:24;18.90;1.00
34135;DHT22;20410;55.578;12.968;2023-07-20T14:35:50;18.90;1.00
34135;DHT22;20410;55.578;12.968;2023-07-20T14:38:15;19.00;1.00
34135;DHT22;20410;55.578;12.968;2023-07-20T14:40:41;19.10;1.00
34135;DHT22;20410;55.578;12.968;2023-07-20T14:43:07;19.20;1.00
34135;DHT22;20410;55.578;12.968;2023-07-20T14:45:32;19.30;1.00
34135;DHT22;20410;55.578;12.968;2023-07-20T14:47:58;19.50;1.00
34135;DHT22;20410;55.578;12.968;2023-07-20T14:50:24;19.70;1.00
34135;DHT22;20410;55.578;12.968;2023-07-20T14:52:50;19.70;1.00
34135;DHT22;20410;55.578;12.968;2023-07-20T14:55:16;19.90;1.00
34135;DHT22;20410;55.578;12.968;2023-07-20T14:57:42;19.90;1.00
34135;DHT22;20410;55.578;12.968;2023-07-20T15:00:08;19.90;1.00
34135;DHT22;20410;55.578;12.968;2023-07-20T15:02:39;20.00;1.00
34135;DHT22;20410;55.578;12.968;2023-07-20T15:05:08;20.10;1.00
34135;DHT22;20410;55.578;12.968;2023-07-20T15:07:34;20.20;1.00
34135;DHT22;20410;55.578;12.968;2023-07-20T15:10:01;20.30;1.00
34135;DHT22;20410;55.578;12.968;2023-07-20T15:12:27;20.50;1.00
34135;DHT22;20410;55.578;12.968;2023-07-20T15:15:07;20.40;1.00
34135;DHT22;20410;55.578;12.968;2023-07-20T15:17:34;20.40;1.00
34135;DHT22;20410;55.578;12.968;2023-07-20T15:20:01;20.10;1.00
34135;DHT22;20410;55.578;12.968;2023-07-20T15:22:30;19.90;1.00
34135;DHT22;20410;55.578;12.968;2023-07-20T15:24:56;19.80;1.00
34135;DHT22;20410;55.578;12.968;2023-07-20T15:27:22;19.80;1.00
34135;DHT22;20410;55.578;12.968;2023-07-20T15:29:49;19.90;1.00
34135;DHT22;20410;55.578;12.968;2023-07-20T15:32:15;19.90;1.00
34135;DHT22;20410;55.578;12.968;2023-07-20T15:34:42;19.70;1.00
34135;DHT22;20410;55.578;12.968;2023-07-20T15:37:09;19.60;1.00
34135;DHT22;20410;55.578;12.968;2023-07-20T15:39:35;19.60;1.00
34135;DHT22;20410;55.578;12.968;2023-07-20T15:42:01;19.50;1.00
34135;DHT22;20410;55.578;12.968;2023-07-20T15:44:26;19.50;1.00
34135;DHT22;20410;55.578;12.968;2023-07-20T15:46:52;19.40;1.00
34135;DHT22;20410;55.578;12.968;2023-07-20T15:49:19;19.40;1.00
34135;DHT22;20410;55.578;12.968;2023-07-20T15:51:44;19.30;1.00